sensor_id;sensor_type;location;lat;lon;timestamp;P1;durP1;ratioP1;P2;durP2;ratioP2
10731;SDS011;5417;42.686;23.244;2023-05-14T00:02:03;5.03;;;2.83;;
10731;SDS011;5417;42.686;23.244;2023-05-14T00:04:30;3.67;;;3.37;;
10731;SDS011;5417;42.686;23.244;2023-05-14T00:06:57;2.80;;;2.70;;
10731;SDS011;5417;42.686;23.244;2023-05-14T00:09:29;3.60;;;3.30;;
10731;SDS011;5417;42.686;23.244;2023-05-14T00:11:55;3.23;;;3.03;;
10731;SDS011;5417;42.686;23.244;2023-05-14T00:14:25;3.13;;;2.93;;
10731;SDS011;5417;42.686;23.244;2023-05-14T00:16:52;3.27;;;3.07;;
10731;SDS011;5417;42.686;23.244;2023-05-14T00:19:19;4.03;;;3.10;;
10731;SDS011;5417;42.686;23.244;2023-05-14T00:21:47;4.23;;;2.83;;
10731;SDS011;5417;42.686;23.244;2023-05-14T00:24:19;3.73;;;3.47;;
10731;SDS011;5417;42.686;23.244;2023-05-14T00:26:48;3.50;;;3.27;;
10731;SDS011;5417;42.686;23.244;2023-05-14T00:29:15;3.50;;;3.20;;
10731;SDS011;5417;42.686;23.244;2023-05-14T00:31:43;3.63;;;3.30;;
10731;SDS011;5417;42.686;23.244;2023-05-14T00:34:10;3.03;;;2.80;;
10731;SDS011;5417;42.686;23.244;2023-05-14T00:36:37;3.20;;;3.10;;
10731;SDS011;5417;42.686;23.244;2023-05-14T00:39:04;3.53;;;3.33;;
10731;SDS011;5417;42.686;23.244;2023-05-14T00:41:31;3.50;;;3.30;;
10731;SDS011;5417;42.686;23.244;2023-05-14T00:43:58;3.50;;;3.20;;
10731;SDS011;5417;42.686;23.244;2023-05-14T00:46:25;4.37;;;3.57;;
10731;SDS011;5417;42.686;23.244;2023-05-14T00:48:54;3.70;;;3.50;;
10731;SDS011;5417;42.686;23.244;2023-05-14T00:51:21;3.53;;;3.27;;
10731;SDS011;5417;42.686;23.244;2023-05-14T00:53:48;4.03;;;3.63;;
10731;SDS011;5417;42.686;23.244;2023-05-14T00:56:17;5.67;;;3.27;;
10731;SDS011;5417;42.686;23.244;2023-05-14T00:58:45;3.87;;;3.67;;
10731;SDS011;5417;42.686;23.244;2023-05-14T01:01:12;3.30;;;3.00;;
10731;SDS011;5417;42.686;23.244;2023-05-14T01:03:39;3.40;;;3.20;;
10731;SDS011;5417;42.686;23.244;2023-05-14T01:06:10;3.17;;;2.97;;
10731;SDS011;5417;42.686;23.244;2023-05-14T01:08:45;3.40;;;3.20;;
10731;SDS011;5417;42.686;23.244;2023-05-14T01:11:23;4.47;;;3.23;;
10731;SDS011;5417;42.686;23.244;2023-05-14T01:13:57;3.30;;;3.00;;
10731;SDS011;5417;42.686;23.244;2023-05-14T01:16:31;3.50;;;3.30;;
10731;SDS011;5417;42.686;23.244;2023-05-14T01:19:04;3.00;;;2.80;;
10731;SDS011;5417;42.686;23.244;2023-05-14T01:21:37;3.03;;;2.80;;
10731;SDS011;5417;42.686;23.244;2023-05-14T01:24:05;3.70;;;3.40;;
10731;SDS011;5417;42.686;23.244;2023-05-14T01:26:32;3.33;;;3.10;;
10731;SDS011;5417;42.686;23.244;2023-05-14T01:29:01;3.17;;;2.90;;
10731;SDS011;5417;42.686;23.244;2023-05-14T01:31:35;3.03;;;2.87;;
10731;SDS011;5417;42.686;23.244;2023-05-14T01:34:05;3.63;;;3.10;;
10731;SDS011;5417;42.686;23.244;2023-05-14T01:36:34;3.40;;;3.03;;
10731;SDS011;5417;42.686;23.244;2023-05-14T01:39:02;3.10;;;2.90;;
10731;SDS011;5417;42.686;23.244;2023-05-14T01:41:39;2.73;;;2.63;;
10731;SDS011;5417;42.686;23.244;2023-05-14T01:44:07;2.80;;;2.70;;
10731;SDS011;5417;42.686;23.244;2023-05-14T01:46:34;2.73;;;2.63;;
10731;SDS011;5417;42.686;23.244;2023-05-14T01:49:02;2.80;;;2.60;;
10731;SDS011;5417;42.686;23.244;2023-05-14T01:51:29;2.87;;;2.60;;
10731;SDS011;5417;42.686;23.244;2023-05-14T01:54:03;3.00;;;2.90;;
10731;SDS011;5417;42.686;23.244;2023-05-14T01:56:30;2.80;;;2.63;;
10731;SDS011;5417;42.686;23.244;2023-05-14T01:58:57;2.57;;;2.47;;
10731;SDS011;5417;42.686;23.244;2023-05-14T02:01:26;2.77;;;2.57;;
10731;SDS011;5417;42.686;23.244;2023-05-14T02:03:55;2.90;;;2.80;;
10731;SDS011;5417;42.686;23.244;2023-05-14T02:06:22;2.80;;;2.60;;
10731;SDS011;5417;42.686;23.244;2023-05-14T02:08:52;2.80;;;2.53;;
10731;SDS011;5417;42.686;23.244;2023-05-14T02:11:34;2.37;;;2.27;;
10731;SDS011;5417;42.686;23.244;2023-05-14T02:14:00;5.20;;;4.40;;
10731;SDS011;5417;42.686;23.244;2023-05-14T02:16:29;3.20;;;2.93;;
10731;SDS011;5417;42.686;23.244;2023-05-14T02:18:59;2.70;;;2.50;;
10731;SDS011;5417;42.686;23.244;2023-05-14T02:21:27;4.13;;;2.60;;
10731;SDS011;5417;42.686;23.244;2023-05-14T02:23:56;2.77;;;2.60;;
10731;SDS011;5417;42.686;23.244;2023-05-14T02:26:23;3.53;;;3.20;;
10731;SDS011;5417;42.686;23.244;2023-05-14T02:28:51;3.63;;;3.37;;
10731;SDS011;5417;42.686;23.244;2023-05-14T02:31:18;2.73;;;2.63;;
10731;SDS011;5417;42.686;23.244;2023-05-14T02:33:45;3.73;;;3.43;;
10731;SDS011;5417;42.686;23.244;2023-05-14T02:36:12;3.70;;;2.50;;
10731;SDS011;5417;42.686;23.244;2023-05-14T02:38:39;2.60;;;2.40;;
10731;SDS011;5417;42.686;23.244;2023-05-14T02:41:07;2.83;;;2.63;;
10731;SDS011;5417;42.686;23.244;2023-05-14T02:43:34;3.00;;;2.70;;
10731;SDS011;5417;42.686;23.244;2023-05-14T02:46:08;3.27;;;2.70;;
10731;SDS011;5417;42.686;23.244;2023-05-14T02:48:35;3.30;;;3.00;;
10731;SDS011;5417;42.686;23.244;2023-05-14T02:51:02;3.20;;;3.00;;
10731;SDS011;5417;42.686;23.244;2023-05-14T02:53:29;3.07;;;2.87;;
10731;SDS011;5417;42.686;23.244;2023-05-14T02:55:56;3.03;;;2.80;;
10731;SDS011;5417;42.686;23.244;2023-05-14T02:58:23;3.07;;;2.87;;
10731;SDS011;5417;42.686;23.244;2023-05-14T03:00:50;3.97;;;2.60;;
10731;SDS011;5417;42.686;23.244;2023-05-14T03:03:18;2.67;;;2.57;;
10731;SDS011;5417;42.686;23.244;2023-05-14T03:05:45;2.97;;;2.80;;
10731;SDS011;5417;42.686;23.244;2023-05-14T03:08:13;3.03;;;2.47;;
10731;SDS011;5417;42.686;23.244;2023-05-14T03:10:41;2.83;;;2.60;;
10731;SDS011;5417;42.686;23.244;2023-05-14T03:13:08;2.90;;;2.70;;
10731;SDS011;5417;42.686;23.244;2023-05-14T03:15:35;2.77;;;2.57;;
10731;SDS011;5417;42.686;23.244;2023-05-14T03:18:02;2.70;;;2.50;;
10731;SDS011;5417;42.686;23.244;2023-05-14T03:20:30;2.70;;;2.60;;
10731;SDS011;5417;42.686;23.244;2023-05-14T03:22:57;2.50;;;2.40;;
10731;SDS011;5417;42.686;23.244;2023-05-14T03:25:26;2.93;;;2.73;;
10731;SDS011;5417;42.686;23.244;2023-05-14T03:27:53;2.50;;;2.40;;
10731;SDS011;5417;42.686;23.244;2023-05-14T03:30:19;3.93;;;3.63;;
10731;SDS011;5417;42.686;23.244;2023-05-14T03:32:46;2.53;;;2.43;;
10731;SDS011;5417;42.686;23.244;2023-05-14T03:35:13;2.83;;;2.60;;
10731;SDS011;5417;42.686;23.244;2023-05-14T03:37:45;2.90;;;2.70;;
10731;SDS011;5417;42.686;23.244;2023-05-14T03:40:12;2.83;;;2.73;;
10731;SDS011;5417;42.686;23.244;2023-05-14T03:42:38;3.07;;;2.87;;
10731;SDS011;5417;42.686;23.244;2023-05-14T03:45:06;3.00;;;2.80;;
10731;SDS011;5417;42.686;23.244;2023-05-14T03:47:34;3.20;;;2.90;;
10731;SDS011;5417;42.686;23.244;2023-05-14T03:50:00;3.10;;;2.90;;
10731;SDS011;5417;42.686;23.244;2023-05-14T03:52:27;2.77;;;2.57;;
10731;SDS011;5417;42.686;23.244;2023-05-14T03:54:56;3.13;;;2.87;;
10731;SDS011;5417;42.686;23.244;2023-05-14T03:57:22;3.10;;;2.77;;
10731;SDS011;5417;42.686;23.244;2023-05-14T03:59:49;3.00;;;2.80;;
10731;SDS011;5417;42.686;23.244;2023-05-14T04:02:16;2.93;;;2.83;;
10731;SDS011;5417;42.686;23.244;2023-05-14T04:04:43;3.57;;;3.30;;
10731;SDS011;5417;42.686;23.244;2023-05-14T04:07:10;3.23;;;2.97;;
10731;SDS011;5417;42.686;23.244;2023-05-14T04:09:36;2.97;;;2.80;;
10731;SDS011;5417;42.686;23.244;2023-05-14T04:12:05;3.10;;;2.80;;
10731;SDS011;5417;42.686;23.244;2023-05-14T04:14:34;2.93;;;2.73;;
10731;SDS011;5417;42.686;23.244;2023-05-14T04:17:06;3.87;;;2.90;;
10731;SDS011;5417;42.686;23.244;2023-05-14T04:19:36;3.10;;;2.87;;
10731;SDS011;5417;42.686;23.244;2023-05-14T04:22:03;2.70;;;2.60;;
10731;SDS011;5417;42.686;23.244;2023-05-14T04:24:35;2.60;;;2.50;;
10731;SDS011;5417;42.686;23.244;2023-05-14T04:27:06;3.23;;;2.93;;
10731;SDS011;5417;42.686;23.244;2023-05-14T04:29:35;3.10;;;3.00;;
10731;SDS011;5417;42.686;23.244;2023-05-14T04:32:01;3.13;;;2.93;;
10731;SDS011;5417;42.686;23.244;2023-05-14T04:34:34;3.50;;;3.20;;
10731;SDS011;5417;42.686;23.244;2023-05-14T04:37:01;2.80;;;2.60;;
10731;SDS011;5417;42.686;23.244;2023-05-14T04:39:29;3.03;;;2.83;;
10731;SDS011;5417;42.686;23.244;2023-05-14T04:41:56;3.20;;;2.90;;
10731;SDS011;5417;42.686;23.244;2023-05-14T04:44:45;3.27;;;2.97;;
10731;SDS011;5417;42.686;23.244;2023-05-14T04:47:23;3.30;;;3.10;;
10731;SDS011;5417;42.686;23.244;2023-05-14T04:49:50;3.83;;;3.53;;
10731;SDS011;5417;42.686;23.244;2023-05-14T04:52:22;4.10;;;3.70;;
10731;SDS011;5417;42.686;23.244;2023-05-14T04:54:50;3.70;;;3.40;;
10731;SDS011;5417;42.686;23.244;2023-05-14T04:57:17;3.13;;;2.93;;
10731;SDS011;5417;42.686;23.244;2023-05-14T04:59:45;3.67;;;3.23;;
10731;SDS011;5417;42.686;23.244;2023-05-14T05:02:12;4.90;;;4.30;;
10731;SDS011;5417;42.686;23.244;2023-05-14T05:04:39;3.73;;;3.53;;
10731;SDS011;5417;42.686;23.244;2023-05-14T05:07:05;3.73;;;3.50;;
10731;SDS011;5417;42.686;23.244;2023-05-14T05:09:32;4.10;;;3.80;;
10731;SDS011;5417;42.686;23.244;2023-05-14T05:12:02;4.10;;;3.80;;
10731;SDS011;5417;42.686;23.244;2023-05-14T05:14:28;3.57;;;3.37;;
10731;SDS011;5417;42.686;23.244;2023-05-14T05:16:57;4.07;;;3.83;;
10731;SDS011;5417;42.686;23.244;2023-05-14T05:19:31;3.97;;;3.77;;
10731;SDS011;5417;42.686;23.244;2023-05-14T05:21:58;4.33;;;4.03;;
10731;SDS011;5417;42.686;23.244;2023-05-14T05:24:27;5.23;;;4.07;;
10731;SDS011;5417;42.686;23.244;2023-05-14T05:26:55;4.13;;;3.83;;
10731;SDS011;5417;42.686;23.244;2023-05-14T05:29:25;4.83;;;4.43;;
10731;SDS011;5417;42.686;23.244;2023-05-14T05:31:52;14.93;;;12.90;;
10731;SDS011;5417;42.686;23.244;2023-05-14T05:34:20;16.20;;;14.50;;
10731;SDS011;5417;42.686;23.244;2023-05-14T05:36:47;4.63;;;4.33;;
10731;SDS011;5417;42.686;23.244;2023-05-14T05:39:18;4.97;;;4.57;;
10731;SDS011;5417;42.686;23.244;2023-05-14T05:41:45;4.60;;;4.20;;
10731;SDS011;5417;42.686;23.244;2023-05-14T05:44:12;5.60;;;5.07;;
10731;SDS011;5417;42.686;23.244;2023-05-14T05:46:39;5.10;;;4.60;;
10731;SDS011;5417;42.686;23.244;2023-05-14T05:49:06;4.10;;;3.90;;
10731;SDS011;5417;42.686;23.244;2023-05-14T05:51:35;7.67;;;7.07;;
10731;SDS011;5417;42.686;23.244;2023-05-14T05:54:02;3.90;;;3.60;;
10731;SDS011;5417;42.686;23.244;2023-05-14T05:56:29;4.17;;;3.90;;
10731;SDS011;5417;42.686;23.244;2023-05-14T05:58:56;5.83;;;3.93;;
10731;SDS011;5417;42.686;23.244;2023-05-14T06:01:23;4.30;;;4.00;;
10731;SDS011;5417;42.686;23.244;2023-05-14T06:03:50;4.43;;;4.07;;
10731;SDS011;5417;42.686;23.244;2023-05-14T06:06:18;4.70;;;4.40;;
10731;SDS011;5417;42.686;23.244;2023-05-14T06:08:47;6.07;;;3.97;;
10731;SDS011;5417;42.686;23.244;2023-05-14T06:11:14;4.40;;;4.00;;
10731;SDS011;5417;42.686;23.244;2023-05-14T06:13:41;4.60;;;4.20;;
10731;SDS011;5417;42.686;23.244;2023-05-14T06:16:08;8.20;;;7.40;;
10731;SDS011;5417;42.686;23.244;2023-05-14T06:18:39;5.00;;;4.60;;
10731;SDS011;5417;42.686;23.244;2023-05-14T06:21:06;5.50;;;5.20;;
10731;SDS011;5417;42.686;23.244;2023-05-14T06:23:33;5.10;;;4.73;;
10731;SDS011;5417;42.686;23.244;2023-05-14T06:26:06;5.03;;;4.63;;
10731;SDS011;5417;42.686;23.244;2023-05-14T06:28:37;5.30;;;4.80;;
10731;SDS011;5417;42.686;23.244;2023-05-14T06:31:04;5.30;;;4.90;;
10731;SDS011;5417;42.686;23.244;2023-05-14T06:33:31;5.00;;;4.60;;
10731;SDS011;5417;42.686;23.244;2023-05-14T06:36:02;5.47;;;5.07;;
10731;SDS011;5417;42.686;23.244;2023-05-14T06:38:30;8.73;;;7.90;;
10731;SDS011;5417;42.686;23.244;2023-05-14T06:40:57;5.73;;;5.23;;
10731;SDS011;5417;42.686;23.244;2023-05-14T06:43:26;5.70;;;5.10;;
10731;SDS011;5417;42.686;23.244;2023-05-14T06:45:53;4.73;;;4.43;;
10731;SDS011;5417;42.686;23.244;2023-05-14T06:48:20;5.07;;;4.67;;
10731;SDS011;5417;42.686;23.244;2023-05-14T06:50:47;6.60;;;4.80;;
10731;SDS011;5417;42.686;23.244;2023-05-14T06:53:20;5.23;;;4.83;;
10731;SDS011;5417;42.686;23.244;2023-05-14T06:55:47;5.60;;;5.10;;
10731;SDS011;5417;42.686;23.244;2023-05-14T06:58:14;5.80;;;5.30;;
10731;SDS011;5417;42.686;23.244;2023-05-14T07:00:42;5.67;;;5.27;;
10731;SDS011;5417;42.686;23.244;2023-05-14T07:03:09;5.80;;;5.30;;
10731;SDS011;5417;42.686;23.244;2023-05-14T07:05:36;5.87;;;5.37;;
10731;SDS011;5417;42.686;23.244;2023-05-14T07:08:04;4.97;;;4.57;;
10731;SDS011;5417;42.686;23.244;2023-05-14T07:10:31;5.13;;;4.83;;
10731;SDS011;5417;42.686;23.244;2023-05-14T07:12:58;5.90;;;5.40;;
10731;SDS011;5417;42.686;23.244;2023-05-14T07:15:25;5.50;;;5.10;;
10731;SDS011;5417;42.686;23.244;2023-05-14T07:17:53;5.87;;;5.27;;
10731;SDS011;5417;42.686;23.244;2023-05-14T07:20:20;4.83;;;4.53;;
10731;SDS011;5417;42.686;23.244;2023-05-14T07:22:47;5.50;;;5.10;;
10731;SDS011;5417;42.686;23.244;2023-05-14T07:25:14;5.27;;;4.80;;
10731;SDS011;5417;42.686;23.244;2023-05-14T07:27:47;5.43;;;5.03;;
10731;SDS011;5417;42.686;23.244;2023-05-14T07:30:17;7.60;;;5.80;;
10731;SDS011;5417;42.686;23.244;2023-05-14T07:32:43;5.33;;;4.73;;
10731;SDS011;5417;42.686;23.244;2023-05-14T07:35:12;6.83;;;5.40;;
10731;SDS011;5417;42.686;23.244;2023-05-14T07:37:40;9.23;;;6.43;;
10731;SDS011;5417;42.686;23.244;2023-05-14T07:40:10;5.90;;;5.37;;
10731;SDS011;5417;42.686;23.244;2023-05-14T07:42:37;6.50;;;6.00;;
10731;SDS011;5417;42.686;23.244;2023-05-14T07:45:04;5.67;;;5.27;;
10731;SDS011;5417;42.686;23.244;2023-05-14T07:47:39;6.57;;;6.07;;
10731;SDS011;5417;42.686;23.244;2023-05-14T07:50:06;6.33;;;5.83;;
10731;SDS011;5417;42.686;23.244;2023-05-14T07:52:35;5.80;;;5.40;;
10731;SDS011;5417;42.686;23.244;2023-05-14T07:55:02;5.87;;;5.30;;
10731;SDS011;5417;42.686;23.244;2023-05-14T07:57:29;29.27;;;11.97;;
10731;SDS011;5417;42.686;23.244;2023-05-14T07:59:56;6.13;;;5.67;;
10731;SDS011;5417;42.686;23.244;2023-05-14T08:02:22;6.87;;;6.07;;
10731;SDS011;5417;42.686;23.244;2023-05-14T08:04:49;10.50;;;8.03;;
10731;SDS011;5417;42.686;23.244;2023-05-14T08:07:16;6.00;;;5.50;;
10731;SDS011;5417;42.686;23.244;2023-05-14T08:09:44;6.93;;;6.23;;
10731;SDS011;5417;42.686;23.244;2023-05-14T08:12:11;14.37;;;7.93;;
10731;SDS011;5417;42.686;23.244;2023-05-14T08:14:38;5.87;;;5.43;;
10731;SDS011;5417;42.686;23.244;2023-05-14T08:17:05;8.33;;;6.50;;
10731;SDS011;5417;42.686;23.244;2023-05-14T08:19:32;6.70;;;6.27;;
10731;SDS011;5417;42.686;23.244;2023-05-14T08:21:59;6.67;;;6.17;;
10731;SDS011;5417;42.686;23.244;2023-05-14T08:24:25;6.93;;;6.33;;
10731;SDS011;5417;42.686;23.244;2023-05-14T08:26:54;6.73;;;6.23;;
10731;SDS011;5417;42.686;23.244;2023-05-14T08:29:21;6.07;;;5.67;;
10731;SDS011;5417;42.686;23.244;2023-05-14T08:31:52;7.17;;;6.57;;
10731;SDS011;5417;42.686;23.244;2023-05-14T08:34:19;5.93;;;5.53;;
10731;SDS011;5417;42.686;23.244;2023-05-14T08:36:46;6.23;;;5.70;;
10731;SDS011;5417;42.686;23.244;2023-05-14T08:39:13;7.93;;;7.13;;
10731;SDS011;5417;42.686;23.244;2023-05-14T08:41:40;6.90;;;6.20;;
10731;SDS011;5417;42.686;23.244;2023-05-14T08:44:10;6.00;;;5.60;;
10731;SDS011;5417;42.686;23.244;2023-05-14T08:46:39;7.43;;;6.37;;
10731;SDS011;5417;42.686;23.244;2023-05-14T08:49:09;7.67;;;5.73;;
10731;SDS011;5417;42.686;23.244;2023-05-14T08:51:43;7.00;;;5.80;;
10731;SDS011;5417;42.686;23.244;2023-05-14T08:54:19;6.80;;;6.20;;
10731;SDS011;5417;42.686;23.244;2023-05-14T08:56:47;6.40;;;5.80;;
10731;SDS011;5417;42.686;23.244;2023-05-14T08:59:18;6.77;;;5.73;;
10731;SDS011;5417;42.686;23.244;2023-05-14T09:01:46;6.87;;;6.23;;
10731;SDS011;5417;42.686;23.244;2023-05-14T09:04:14;6.83;;;6.27;;
10731;SDS011;5417;42.686;23.244;2023-05-14T09:06:41;6.60;;;6.10;;
10731;SDS011;5417;42.686;23.244;2023-05-14T09:09:11;6.10;;;5.60;;
10731;SDS011;5417;42.686;23.244;2023-05-14T09:11:41;6.07;;;5.60;;
10731;SDS011;5417;42.686;23.244;2023-05-14T09:14:11;6.73;;;6.13;;
10731;SDS011;5417;42.686;23.244;2023-05-14T09:16:39;6.30;;;5.90;;
10731;SDS011;5417;42.686;23.244;2023-05-14T09:19:16;7.13;;;6.63;;
10731;SDS011;5417;42.686;23.244;2023-05-14T09:21:44;7.00;;;6.30;;
10731;SDS011;5417;42.686;23.244;2023-05-14T09:24:19;6.73;;;6.23;;
10731;SDS011;5417;42.686;23.244;2023-05-14T09:26:48;6.73;;;6.23;;
10731;SDS011;5417;42.686;23.244;2023-05-14T09:29:16;6.67;;;6.17;;
10731;SDS011;5417;42.686;23.244;2023-05-14T09:31:45;6.70;;;6.17;;
10731;SDS011;5417;42.686;23.244;2023-05-14T09:34:21;6.70;;;6.20;;
10731;SDS011;5417;42.686;23.244;2023-05-14T09:36:49;7.00;;;6.50;;
10731;SDS011;5417;42.686;23.244;2023-05-14T09:39:19;7.00;;;6.30;;
10731;SDS011;5417;42.686;23.244;2023-05-14T09:41:48;7.20;;;6.50;;
10731;SDS011;5417;42.686;23.244;2023-05-14T09:44:16;7.47;;;6.77;;
10731;SDS011;5417;42.686;23.244;2023-05-14T09:46:44;7.77;;;7.03;;
10731;SDS011;5417;42.686;23.244;2023-05-14T09:49:11;6.83;;;6.30;;
10731;SDS011;5417;42.686;23.244;2023-05-14T09:51:40;7.07;;;6.47;;
10731;SDS011;5417;42.686;23.244;2023-05-14T09:54:07;6.07;;;5.67;;
10731;SDS011;5417;42.686;23.244;2023-05-14T09:56:35;7.10;;;6.40;;
10731;SDS011;5417;42.686;23.244;2023-05-14T09:59:06;7.10;;;6.70;;
10731;SDS011;5417;42.686;23.244;2023-05-14T10:01:32;6.60;;;6.00;;
10731;SDS011;5417;42.686;23.244;2023-05-14T10:04:02;7.07;;;6.07;;
10731;SDS011;5417;42.686;23.244;2023-05-14T10:06:32;6.60;;;6.20;;
10731;SDS011;5417;42.686;23.244;2023-05-14T10:09:03;6.73;;;6.23;;
10731;SDS011;5417;42.686;23.244;2023-05-14T10:11:36;6.67;;;6.17;;
10731;SDS011;5417;42.686;23.244;2023-05-14T10:14:10;6.50;;;6.03;;
10731;SDS011;5417;42.686;23.244;2023-05-14T10:16:43;7.00;;;6.50;;
10731;SDS011;5417;42.686;23.244;2023-05-14T10:19:15;8.77;;;8.07;;
10731;SDS011;5417;42.686;23.244;2023-05-14T10:21:44;7.60;;;6.90;;
10731;SDS011;5417;42.686;23.244;2023-05-14T10:24:14;7.00;;;6.50;;
10731;SDS011;5417;42.686;23.244;2023-05-14T10:26:43;7.70;;;7.13;;
10731;SDS011;5417;42.686;23.244;2023-05-14T10:29:12;7.67;;;7.17;;
10731;SDS011;5417;42.686;23.244;2023-05-14T10:31:52;8.33;;;7.57;;
10731;SDS011;5417;42.686;23.244;2023-05-14T10:34:36;7.67;;;7.07;;
10731;SDS011;5417;42.686;23.244;2023-05-14T10:37:05;9.60;;;8.73;;
10731;SDS011;5417;42.686;23.244;2023-05-14T10:39:40;7.83;;;7.33;;
10731;SDS011;5417;42.686;23.244;2023-05-14T10:42:11;8.43;;;7.57;;
10731;SDS011;5417;42.686;23.244;2023-05-14T10:44:44;7.77;;;7.17;;
10731;SDS011;5417;42.686;23.244;2023-05-14T10:47:14;12.07;;;10.93;;
10731;SDS011;5417;42.686;23.244;2023-05-14T10:49:43;8.50;;;7.53;;
10731;SDS011;5417;42.686;23.244;2023-05-14T10:52:15;8.10;;;7.40;;
10731;SDS011;5417;42.686;23.244;2023-05-14T10:54:49;8.63;;;7.93;;
10731;SDS011;5417;42.686;23.244;2023-05-14T10:57:17;8.53;;;7.93;;
10731;SDS011;5417;42.686;23.244;2023-05-14T10:59:48;7.20;;;6.70;;
10731;SDS011;5417;42.686;23.244;2023-05-14T11:02:22;8.80;;;8.20;;
10731;SDS011;5417;42.686;23.244;2023-05-14T11:04:56;8.37;;;7.73;;
10731;SDS011;5417;42.686;23.244;2023-05-14T11:07:27;8.67;;;7.83;;
10731;SDS011;5417;42.686;23.244;2023-05-14T11:09:59;12.67;;;11.47;;
10731;SDS011;5417;42.686;23.244;2023-05-14T11:12:29;19.33;;;17.83;;
10731;SDS011;5417;42.686;23.244;2023-05-14T11:14:57;16.23;;;14.77;;
10731;SDS011;5417;42.686;23.244;2023-05-14T11:17:26;11.90;;;10.83;;
10731;SDS011;5417;42.686;23.244;2023-05-14T11:19:59;10.97;;;10.17;;
10731;SDS011;5417;42.686;23.244;2023-05-14T11:22:26;10.90;;;10.00;;
10731;SDS011;5417;42.686;23.244;2023-05-14T11:25:00;11.07;;;10.17;;
10731;SDS011;5417;42.686;23.244;2023-05-14T11:27:28;10.47;;;9.53;;
10731;SDS011;5417;42.686;23.244;2023-05-14T11:29:55;9.90;;;9.10;;
10731;SDS011;5417;42.686;23.244;2023-05-14T11:32:22;10.30;;;9.47;;
10731;SDS011;5417;42.686;23.244;2023-05-14T11:34:51;8.67;;;8.13;;
10731;SDS011;5417;42.686;23.244;2023-05-14T11:37:20;8.43;;;7.83;;
10731;SDS011;5417;42.686;23.244;2023-05-14T11:39:47;8.93;;;8.20;;
10731;SDS011;5417;42.686;23.244;2023-05-14T11:42:15;8.63;;;7.97;;
10731;SDS011;5417;42.686;23.244;2023-05-14T11:44:48;8.07;;;7.57;;
10731;SDS011;5417;42.686;23.244;2023-05-14T11:47:16;8.37;;;7.77;;
10731;SDS011;5417;42.686;23.244;2023-05-14T11:49:44;8.00;;;7.50;;
10731;SDS011;5417;42.686;23.244;2023-05-14T11:52:12;8.80;;;8.10;;
10731;SDS011;5417;42.686;23.244;2023-05-14T11:54:41;8.03;;;7.43;;
10731;SDS011;5417;42.686;23.244;2023-05-14T11:57:09;8.37;;;7.77;;
10731;SDS011;5417;42.686;23.244;2023-05-14T11:59:37;9.43;;;8.63;;
10731;SDS011;5417;42.686;23.244;2023-05-14T12:02:07;13.73;;;12.70;;
10731;SDS011;5417;42.686;23.244;2023-05-14T12:04:35;16.20;;;14.90;;
10731;SDS011;5417;42.686;23.244;2023-05-14T12:07:06;12.87;;;11.97;;
10731;SDS011;5417;42.686;23.244;2023-05-14T12:09:35;13.53;;;12.47;;
10731;SDS011;5417;42.686;23.244;2023-05-14T12:12:08;8.03;;;7.53;;
10731;SDS011;5417;42.686;23.244;2023-05-14T12:14:36;7.90;;;7.30;;
10731;SDS011;5417;42.686;23.244;2023-05-14T12:17:08;8.10;;;7.40;;
10731;SDS011;5417;42.686;23.244;2023-05-14T12:19:38;8.10;;;7.60;;
10731;SDS011;5417;42.686;23.244;2023-05-14T12:22:07;8.50;;;7.90;;
10731;SDS011;5417;42.686;23.244;2023-05-14T12:24:37;8.30;;;7.70;;
10731;SDS011;5417;42.686;23.244;2023-05-14T12:27:05;8.37;;;7.77;;
10731;SDS011;5417;42.686;23.244;2023-05-14T12:29:35;8.27;;;7.67;;
10731;SDS011;5417;42.686;23.244;2023-05-14T12:32:06;7.57;;;7.10;;
10731;SDS011;5417;42.686;23.244;2023-05-14T12:34:35;8.20;;;7.60;;
10731;SDS011;5417;42.686;23.244;2023-05-14T12:37:03;8.13;;;7.53;;
10731;SDS011;5417;42.686;23.244;2023-05-14T12:39:31;8.17;;;7.57;;
10731;SDS011;5417;42.686;23.244;2023-05-14T12:41:59;15.03;;;13.27;;
10731;SDS011;5417;42.686;23.244;2023-05-14T12:44:26;8.77;;;8.17;;
10731;SDS011;5417;42.686;23.244;2023-05-14T12:46:54;8.83;;;8.23;;
10731;SDS011;5417;42.686;23.244;2023-05-14T12:49:21;7.50;;;7.07;;
10731;SDS011;5417;42.686;23.244;2023-05-14T12:51:53;7.00;;;6.60;;
10731;SDS011;5417;42.686;23.244;2023-05-14T12:54:29;8.60;;;7.97;;
10731;SDS011;5417;42.686;23.244;2023-05-14T12:56:56;11.30;;;10.10;;
10731;SDS011;5417;42.686;23.244;2023-05-14T12:59:23;8.23;;;7.60;;
10731;SDS011;5417;42.686;23.244;2023-05-14T13:01:50;7.90;;;7.40;;
10731;SDS011;5417;42.686;23.244;2023-05-14T13:04:19;8.17;;;7.67;;
10731;SDS011;5417;42.686;23.244;2023-05-14T13:06:45;7.53;;;7.03;;
10731;SDS011;5417;42.686;23.244;2023-05-14T13:09:12;8.27;;;7.67;;
10731;SDS011;5417;42.686;23.244;2023-05-14T13:11:41;7.50;;;7.00;;
10731;SDS011;5417;42.686;23.244;2023-05-14T13:14:08;7.80;;;7.30;;
10731;SDS011;5417;42.686;23.244;2023-05-14T13:16:35;9.10;;;8.20;;
10731;SDS011;5417;42.686;23.244;2023-05-14T13:19:02;7.97;;;7.37;;
10731;SDS011;5417;42.686;23.244;2023-05-14T13:21:33;8.57;;;7.90;;
10731;SDS011;5417;42.686;23.244;2023-05-14T13:24:00;7.73;;;7.23;;
10731;SDS011;5417;42.686;23.244;2023-05-14T13:26:30;8.90;;;8.17;;
10731;SDS011;5417;42.686;23.244;2023-05-14T13:28:57;8.60;;;8.00;;
10731;SDS011;5417;42.686;23.244;2023-05-14T13:31:24;8.17;;;7.67;;
10731;SDS011;5417;42.686;23.244;2023-05-14T13:33:51;7.80;;;7.30;;
10731;SDS011;5417;42.686;23.244;2023-05-14T13:36:23;8.80;;;8.13;;
10731;SDS011;5417;42.686;23.244;2023-05-14T13:38:51;8.43;;;7.83;;
10731;SDS011;5417;42.686;23.244;2023-05-14T13:41:18;9.13;;;8.43;;
10731;SDS011;5417;42.686;23.244;2023-05-14T13:43:45;9.03;;;8.33;;
10731;SDS011;5417;42.686;23.244;2023-05-14T13:46:12;9.40;;;8.60;;
10731;SDS011;5417;42.686;23.244;2023-05-14T13:48:41;9.37;;;8.67;;
10731;SDS011;5417;42.686;23.244;2023-05-14T13:51:08;10.77;;;9.77;;
10731;SDS011;5417;42.686;23.244;2023-05-14T13:53:34;11.53;;;10.63;;
10731;SDS011;5417;42.686;23.244;2023-05-14T13:56:03;11.70;;;10.80;;
10731;SDS011;5417;42.686;23.244;2023-05-14T13:58:30;12.10;;;11.10;;
10731;SDS011;5417;42.686;23.244;2023-05-14T14:01:01;12.13;;;11.10;;
10731;SDS011;5417;42.686;23.244;2023-05-14T14:03:28;11.53;;;10.50;;
10731;SDS011;5417;42.686;23.244;2023-05-14T14:05:55;11.17;;;10.30;;
10731;SDS011;5417;42.686;23.244;2023-05-14T14:08:22;10.17;;;9.33;;
10731;SDS011;5417;42.686;23.244;2023-05-14T14:10:50;11.20;;;10.10;;
10731;SDS011;5417;42.686;23.244;2023-05-14T14:13:43;10.20;;;9.40;;
10731;SDS011;5417;42.686;23.244;2023-05-14T14:16:11;11.20;;;10.30;;
10731;SDS011;5417;42.686;23.244;2023-05-14T14:18:39;9.77;;;9.00;;
10731;SDS011;5417;42.686;23.244;2023-05-14T14:21:07;18.10;;;13.83;;
10731;SDS011;5417;42.686;23.244;2023-05-14T14:29:43;10.57;;;9.67;;
10731;SDS011;5417;42.686;23.244;2023-05-14T14:32:10;11.27;;;10.37;;
10731;SDS011;5417;42.686;23.244;2023-05-14T14:34:37;11.20;;;10.30;;
10731;SDS011;5417;42.686;23.244;2023-05-14T14:37:11;11.43;;;10.60;;
10731;SDS011;5417;42.686;23.244;2023-05-14T14:40:15;10.73;;;9.93;;
10731;SDS011;5417;42.686;23.244;2023-05-14T14:44:16;33.17;;;29.70;;
10731;SDS011;5417;42.686;23.244;2023-05-14T14:46:44;10.47;;;9.57;;
10731;SDS011;5417;42.686;23.244;2023-05-14T14:49:11;10.67;;;9.77;;
10731;SDS011;5417;42.686;23.244;2023-05-14T14:51:40;10.57;;;9.77;;
10731;SDS011;5417;42.686;23.244;2023-05-14T14:54:46;10.80;;;10.00;;
10731;SDS011;5417;42.686;23.244;2023-05-14T14:57:03;10.43;;;9.63;;
10731;SDS011;5417;42.686;23.244;2023-05-14T14:59:40;9.43;;;8.73;;
10731;SDS011;5417;42.686;23.244;2023-05-14T15:02:08;11.13;;;10.23;;
10731;SDS011;5417;42.686;23.244;2023-05-14T15:04:35;12.03;;;11.03;;